sensor_id;sensor_type;location;lat;lon;timestamp;pressure;altitude;pressure_sealevel;temperature;humidity
8653;BME280;4364;52.426;9.424;2023-02-27T00:00:39;102300.44;;;-2.27;85.49
8653;BME280;4364;52.426;9.424;2023-02-27T00:03:06;102309.84;;;-2.33;85.49
8653;BME280;4364;52.426;9.424;2023-02-27T00:05:32;102303.53;;;-2.32;85.81
8653;BME280;4364;52.426;9.424;2023-02-27T00:07:58;102311.31;;;-2.38;86.01
8653;BME280;4364;52.426;9.424;2023-02-27T00:10:26;102315.25;;;-2.43;86.81
8653;BME280;4364;52.426;9.424;2023-02-27T00:12:53;102308.63;;;-2.38;86.31
8653;BME280;4364;52.426;9.424;2023-02-27T00:15:19;102299.88;;;-2.49;86.42
8653;BME280;4364;52.426;9.424;2023-02-27T00:17:46;102307.31;;;-2.52;86.88
8653;BME280;4364;52.426;9.424;2023-02-27T00:20:14;102305.75;;;-2.45;87.14
8653;BME280;4364;52.426;9.424;2023-02-27T00:22:42;102302.41;;;-2.47;87.26
8653;BME280;4364;52.426;9.424;2023-02-27T00:25:10;102305.06;;;-2.47;87.19
8653;BME280;4364;52.426;9.424;2023-02-27T00:27:37;102306.88;;;-2.48;86.95
8653;BME280;4364;52.426;9.424;2023-02-27T00:30:06;102302.91;;;-2.62;86.79
8653;BME280;4364;52.426;9.424;2023-02-27T00:32:34;102306.94;;;-2.57;87.25
8653;BME280;4364;52.426;9.424;2023-02-27T00:35:03;102310.97;;;-2.53;87.16
8653;BME280;4364;52.426;9.424;2023-02-27T00:37:30;102307.03;;;-2.49;86.96
8653;BME280;4364;52.426;9.424;2023-02-27T00:39:56;102310.53;;;-2.49;87.21
8653;BME280;4364;52.426;9.424;2023-02-27T00:42:23;102307.16;;;-2.51;86.90
8653;BME280;4364;52.426;9.424;2023-02-27T00:44:49;102304.81;;;-2.54;87.06
8653;BME280;4364;52.426;9.424;2023-02-27T00:47:16;102299.94;;;-2.58;87.18
8653;BME280;4364;52.426;9.424;2023-02-27T00:49:42;102311.56;;;-2.59;86.99
8653;BME280;4364;52.426;9.424;2023-02-27T00:52:09;102305.28;;;-2.58;86.94
8653;BME280;4364;52.426;9.424;2023-02-27T00:54:35;102293.09;;;-2.61;87.21
8653;BME280;4364;52.426;9.424;2023-02-27T00:57:02;102299.72;;;-2.65;87.19
8653;BME280;4364;52.426;9.424;2023-02-27T00:59:28;102305.09;;;-2.75;87.60
8653;BME280;4364;52.426;9.424;2023-02-27T01:01:55;102300.22;;;-2.80;88.01
8653;BME280;4364;52.426;9.424;2023-02-27T01:04:21;102302.03;;;-2.80;88.05
8653;BME280;4364;52.426;9.424;2023-02-27T01:06:48;102303.31;;;-2.84;87.59
8653;BME280;4364;52.426;9.424;2023-02-27T01:09:14;102305.44;;;-2.88;87.95
8653;BME280;4364;52.426;9.424;2023-02-27T01:11:41;102304.75;;;-2.90;88.14
8653;BME280;4364;52.426;9.424;2023-02-27T01:14:07;102302.78;;;-2.88;88.21
8653;BME280;4364;52.426;9.424;2023-02-27T01:16:34;102299.28;;;-2.88;88.33
8653;BME280;4364;52.426;9.424;2023-02-27T01:19:01;102299.28;;;-2.88;88.55
8653;BME280;4364;52.426;9.424;2023-02-27T01:21:28;102303.53;;;-2.95;89.15
8653;BME280;4364;52.426;9.424;2023-02-27T01:23:54;102299.88;;;-2.94;89.46
8653;BME280;4364;52.426;9.424;2023-02-27T01:26:21;102298.47;;;-2.89;89.41
8653;BME280;4364;52.426;9.424;2023-02-27T01:28:47;102293.38;;;-2.82;89.17
8653;BME280;4364;52.426;9.424;2023-02-27T01:31:14;102289.69;;;-2.81;89.29
8653;BME280;4364;52.426;9.424;2023-02-27T01:33:40;102284.75;;;-2.76;89.43
8653;BME280;4364;52.426;9.424;2023-02-27T01:36:08;102292.91;;;-2.77;89.07
8653;BME280;4364;52.426;9.424;2023-02-27T01:38:34;102282.72;;;-2.82;89.03
8653;BME280;4364;52.426;9.424;2023-02-27T01:41:01;102291.84;;;-2.85;89.17
8653;BME280;4364;52.426;9.424;2023-02-27T01:43:30;102293.97;;;-2.88;88.92
8653;BME280;4364;52.426;9.424;2023-02-27T01:45:57;102289.66;;;-2.99;89.47
8653;BME280;4364;52.426;9.424;2023-02-27T01:48:30;102286.94;;;-3.07;89.51
8653;BME280;4364;52.426;9.424;2023-02-27T01:51:00;102293.22;;;-3.08;89.61
8653;BME280;4364;52.426;9.424;2023-02-27T01:53:30;102293.22;;;-3.08;89.75
8653;BME280;4364;52.426;9.424;2023-02-27T01:56:03;102293.22;;;-3.08;89.80
8653;BME280;4364;52.426;9.424;2023-02-27T01:58:31;102295.59;;;-3.05;89.76
8653;BME280;4364;52.426;9.424;2023-02-27T02:00:57;102292.06;;;-3.06;89.37
8653;BME280;4364;52.426;9.424;2023-02-27T02:03:38;102300.78;;;-3.04;89.19
8653;BME280;4364;52.426;9.424;2023-02-27T02:06:07;102301.06;;;-3.07;89.03
8653;BME280;4364;52.426;9.424;2023-02-27T02:08:40;102297.63;;;-3.17;88.72
8653;BME280;4364;52.426;9.424;2023-02-27T02:11:08;102301.94;;;-3.16;89.46
8653;BME280;4364;52.426;9.424;2023-02-27T02:13:37;102293.81;;;-3.14;89.16
8653;BME280;4364;52.426;9.424;2023-02-27T02:16:24;102297.31;;;-3.14;88.80
8653;BME280;4364;52.426;9.424;2023-02-27T02:21:55;102289.09;;;-3.21;89.20
8653;BME280;4364;52.426;9.424;2023-02-27T02:27:34;102292.19;;;-3.25;89.68
8653;BME280;4364;52.426;9.424;2023-02-27T02:33:44;102297.06;;;-3.21;89.77
8653;BME280;4364;52.426;9.424;2023-02-27T02:36:26;102286.72;;;-3.24;89.60
8653;BME280;4364;52.426;9.424;2023-02-27T02:42:24;102291.19;;;-3.24;88.95
8653;BME280;4364;52.426;9.424;2023-02-27T02:45:09;102279.84;;;-3.26;88.92
8653;BME280;4364;52.426;9.424;2023-02-27T02:48:13;102284.50;;;-3.28;89.17
8653;BME280;4364;52.426;9.424;2023-02-27T02:51:02;102278.19;;;-3.27;89.30
8653;BME280;4364;52.426;9.424;2023-02-27T02:56:33;102283.34;;;-3.26;89.45
8653;BME280;4364;52.426;9.424;2023-02-27T02:59:07;102283.16;;;-3.14;89.44
8653;BME280;4364;52.426;9.424;2023-02-27T03:01:49;102278.38;;;-3.11;89.58
8653;BME280;4364;52.426;9.424;2023-02-27T03:04:29;102286.59;;;-3.04;89.58
8653;BME280;4364;52.426;9.424;2023-02-27T03:07:26;102283.66;;;-3.01;89.38
8653;BME280;4364;52.426;9.424;2023-02-27T03:12:26;102288.47;;;-3.14;89.84
8653;BME280;4364;52.426;9.424;2023-02-27T03:15:11;102300.97;;;-3.15;90.68
8653;BME280;4364;52.426;9.424;2023-02-27T03:17:45;102302.22;;;-3.19;90.59
8653;BME280;4364;52.426;9.424;2023-02-27T03:20:19;102297.66;;;-3.27;90.55
8653;BME280;4364;52.426;9.424;2023-02-27T03:22:51;102298.06;;;-3.31;91.04
8653;BME280;4364;52.426;9.424;2023-02-27T03:25:22;102304.22;;;-3.31;90.64
8653;BME280;4364;52.426;9.424;2023-02-27T03:27:59;102306.19;;;-3.33;91.10
8653;BME280;4364;52.426;9.424;2023-02-27T03:33:03;102315.44;;;-3.27;91.26
8653;BME280;4364;52.426;9.424;2023-02-27T03:36:04;102313.06;;;-3.30;91.12
8653;BME280;4364;52.426;9.424;2023-02-27T03:41:12;102313.91;;;-3.30;91.07
8653;BME280;4364;52.426;9.424;2023-02-27T03:43:55;102313.34;;;-3.33;91.18
8653;BME280;4364;52.426;9.424;2023-02-27T03:46:25;102315.34;;;-3.36;91.90
8653;BME280;4364;52.426;9.424;2023-02-27T03:48:53;102314.19;;;-3.33;91.80
8653;BME280;4364;52.426;9.424;2023-02-27T03:51:22;102321.88;;;-3.30;91.83
8653;BME280;4364;52.426;9.424;2023-02-27T03:56:31;102331.09;;;-3.24;91.69
8653;BME280;4364;52.426;9.424;2023-02-27T03:59:01;102324.13;;;-3.25;91.96
8653;BME280;4364;52.426;9.424;2023-02-27T04:01:28;102324.25;;;-3.27;92.54
8653;BME280;4364;52.426;9.424;2023-02-27T04:04:00;102328.16;;;-3.21;92.65
8653;BME280;4364;52.426;9.424;2023-02-27T04:06:59;102328.53;;;-3.16;93.01
8653;BME280;4364;52.426;9.424;2023-02-27T04:10:05;102334.13;;;-3.09;92.64
8653;BME280;4364;52.426;9.424;2023-02-27T04:13:07;102334.66;;;-3.06;92.81
8653;BME280;4364;52.426;9.424;2023-02-27T04:15:51;102329.91;;;-3.02;92.60
8653;BME280;4364;52.426;9.424;2023-02-27T04:18:50;102341.97;;;-3.08;92.61
8653;BME280;4364;52.426;9.424;2023-02-27T04:24:19;102341.97;;;-3.08;92.39
8653;BME280;4364;52.426;9.424;2023-02-27T04:26:56;102343.78;;;-3.08;92.55
8653;BME280;4364;52.426;9.424;2023-02-27T04:32:36;102336.63;;;-3.08;92.69
8653;BME280;4364;52.426;9.424;2023-02-27T04:35:12;102341.41;;;-3.11;92.90
8653;BME280;4364;52.426;9.424;2023-02-27T04:37:46;102346.63;;;-3.20;92.43
8653;BME280;4364;52.426;9.424;2023-02-27T04:40:18;102349.16;;;-3.18;92.48
8653;BME280;4364;52.426;9.424;2023-02-27T04:42:50;102332.63;;;-3.22;92.73
8653;BME280;4364;52.426;9.424;2023-02-27T04:45:23;102341.88;;;-3.26;92.78
8653;BME280;4364;52.426;9.424;2023-02-27T04:47:56;102340.06;;;-3.25;92.46
8653;BME280;4364;52.426;9.424;2023-02-27T04:50:28;102352.38;;;-3.24;92.71
8653;BME280;4364;52.426;9.424;2023-02-27T04:53:36;102337.00;;;-3.30;92.52
8653;BME280;4364;52.426;9.424;2023-02-27T04:55:58;102349.91;;;-3.36;92.69
8653;BME280;4364;52.426;9.424;2023-02-27T04:58:31;102358.72;;;-3.35;92.34
8653;BME280;4364;52.426;9.424;2023-02-27T05:01:03;102354.66;;;-3.39;92.74
8653;BME280;4364;52.426;9.424;2023-02-27T05:03:37;102356.06;;;-3.35;93.08
8653;BME280;4364;52.426;9.424;2023-02-27T05:06:07;102357.75;;;-3.34;92.50
8653;BME280;4364;52.426;9.424;2023-02-27T05:08:40;102355.38;;;-3.37;92.98
8653;BME280;4364;52.426;9.424;2023-02-27T05:11:14;102359.44;;;-3.43;93.08
8653;BME280;4364;52.426;9.424;2023-02-27T05:13:48;102352.16;;;-3.41;93.30
8653;BME280;4364;52.426;9.424;2023-02-27T05:16:38;102361.38;;;-3.35;92.74
8653;BME280;4364;52.426;9.424;2023-02-27T05:19:07;102355.53;;;-3.39;93.37
8653;BME280;4364;52.426;9.424;2023-02-27T05:24:49;102362.34;;;-3.36;93.36
8653;BME280;4364;52.426;9.424;2023-02-27T05:27:37;102365.41;;;-3.31;93.29
8653;BME280;4364;52.426;9.424;2023-02-27T05:30:17;102367.25;;;-3.31;93.13
8653;BME280;4364;52.426;9.424;2023-02-27T05:33:09;102365.13;;;-3.28;93.74
8653;BME280;4364;52.426;9.424;2023-02-27T05:35:49;102375.06;;;-3.20;93.14
8653;BME280;4364;52.426;9.424;2023-02-27T05:38:26;102371.13;;;-3.16;92.97
8653;BME280;4364;52.426;9.424;2023-02-27T05:41:00;102368.16;;;-3.13;92.75
8653;BME280;4364;52.426;9.424;2023-02-27T05:43:30;102375.88;;;-3.10;92.99
8653;BME280;4364;52.426;9.424;2023-02-27T05:46:04;102370.56;;;-3.10;93.20
8653;BME280;4364;52.426;9.424;2023-02-27T05:48:35;102379.06;;;-3.06;93.30
8653;BME280;4364;52.426;9.424;2023-02-27T05:51:06;102367.75;;;-3.08;93.17
8653;BME280;4364;52.426;9.424;2023-02-27T05:53:40;102375.44;;;-3.05;93.39
8653;BME280;4364;52.426;9.424;2023-02-27T05:56:10;102378.09;;;-3.05;93.00
8653;BME280;4364;52.426;9.424;2023-02-27T05:58:42;102382.03;;;-3.09;92.96
8653;BME280;4364;52.426;9.424;2023-02-27T06:01:11;102389.31;;;-3.11;92.99
8653;BME280;4364;52.426;9.424;2023-02-27T06:03:39;102400.09;;;-3.13;93.00
8653;BME280;4364;52.426;9.424;2023-02-27T06:06:16;102387.81;;;-3.14;92.94
8653;BME280;4364;52.426;9.424;2023-02-27T06:08:44;102398.28;;;-3.12;93.08
8653;BME280;4364;52.426;9.424;2023-02-27T06:11:11;102407.13;;;-3.12;93.55
8653;BME280;4364;52.426;9.424;2023-02-27T06:13:38;102405.28;;;-3.11;93.49
8653;BME280;4364;52.426;9.424;2023-02-27T06:16:09;102406.38;;;-3.04;93.90
8653;BME280;4364;52.426;9.424;2023-02-27T06:18:36;102402.06;;;-3.05;93.83
8653;BME280;4364;52.426;9.424;2023-02-27T06:21:03;102417.34;;;-3.07;93.95
8653;BME280;4364;52.426;9.424;2023-02-27T06:23:29;102419.00;;;-3.06;94.11
8653;BME280;4364;52.426;9.424;2023-02-27T06:25:56;102415.09;;;-3.02;94.35
8653;BME280;4364;52.426;9.424;2023-02-27T06:28:23;102419.00;;;-3.06;94.70
8653;BME280;4364;52.426;9.424;2023-02-27T06:30:54;102418.28;;;-2.99;94.31
8653;BME280;4364;52.426;9.424;2023-02-27T06:33:22;102415.78;;;-3.00;94.44
8653;BME280;4364;52.426;9.424;2023-02-27T06:35:49;102416.31;;;-2.96;94.17
8653;BME280;4364;52.426;9.424;2023-02-27T06:38:15;102408.03;;;-2.93;94.47
8653;BME280;4364;52.426;9.424;2023-02-27T06:40:42;102426.94;;;-2.87;94.78
8653;BME280;4364;52.426;9.424;2023-02-27T06:43:09;102426.94;;;-2.87;94.71
8653;BME280;4364;52.426;9.424;2023-02-27T06:45:35;102423.13;;;-2.84;94.75
8653;BME280;4364;52.426;9.424;2023-02-27T06:48:02;102431.94;;;-2.74;94.42
8653;BME280;4364;52.426;9.424;2023-02-27T06:50:28;102436.81;;;-2.69;94.59
8653;BME280;4364;52.426;9.424;2023-02-27T06:52:55;102418.31;;;-2.71;94.42
8653;BME280;4364;52.426;9.424;2023-02-27T06:55:21;102433.88;;;-2.76;94.30
8653;BME280;4364;52.426;9.424;2023-02-27T06:57:50;102427.72;;;-2.76;94.67
8653;BME280;4364;52.426;9.424;2023-02-27T07:00:17;102436.94;;;-2.71;94.65
8653;BME280;4364;52.426;9.424;2023-02-27T07:02:43;102443.28;;;-2.72;94.57
8653;BME280;4364;52.426;9.424;2023-02-27T07:05:10;102446.22;;;-2.75;94.41
8653;BME280;4364;52.426;9.424;2023-02-27T07:07:37;102442.84;;;-2.67;94.77
8653;BME280;4364;52.426;9.424;2023-02-27T07:10:08;102445.34;;;-2.66;94.68
8653;BME280;4364;52.426;9.424;2023-02-27T07:12:37;102441.84;;;-2.66;94.56
8653;BME280;4364;52.426;9.424;2023-02-27T07:15:04;102451.53;;;-2.65;94.61
8653;BME280;4364;52.426;9.424;2023-02-27T07:17:31;102440.25;;;-2.59;94.67
8653;BME280;4364;52.426;9.424;2023-02-27T07:19:58;102443.94;;;-2.60;94.79
8653;BME280;4364;52.426;9.424;2023-02-27T07:22:24;102436.78;;;-2.59;94.24
8653;BME280;4364;52.426;9.424;2023-02-27T07:24:51;102448.25;;;-2.59;94.19
8653;BME280;4364;52.426;9.424;2023-02-27T07:27:17;102445.28;;;-2.56;94.28
8653;BME280;4364;52.426;9.424;2023-02-27T07:29:43;102450.34;;;-2.53;94.56
8653;BME280;4364;52.426;9.424;2023-02-27T07:32:10;102447.72;;;-2.35;94.19
8653;BME280;4364;52.426;9.424;2023-02-27T07:34:37;102448.28;;;-2.31;94.44
8653;BME280;4364;52.426;9.424;2023-02-27T07:37:03;102454.81;;;-2.26;94.34
8653;BME280;4364;52.426;9.424;2023-02-27T07:39:30;102455.25;;;-2.20;94.27
8653;BME280;4364;52.426;9.424;2023-02-27T07:41:57;102452.50;;;-2.11;93.51
8653;BME280;4364;52.426;9.424;2023-02-27T07:44:23;102455.41;;;-2.04;93.60
8653;BME280;4364;52.426;9.424;2023-02-27T07:46:50;102465.63;;;-1.99;94.13
8653;BME280;4364;52.426;9.424;2023-02-27T07:49:17;102461.28;;;-2.00;94.25
8653;BME280;4364;52.426;9.424;2023-02-27T07:51:43;102464.78;;;-2.00;94.17
8653;BME280;4364;52.426;9.424;2023-02-27T07:54:10;102471.03;;;-1.91;94.23
8653;BME280;4364;52.426;9.424;2023-02-27T07:56:36;102464.72;;;-1.90;94.01
8653;BME280;4364;52.426;9.424;2023-02-27T07:59:03;102462.44;;;-1.85;93.90
8653;BME280;4364;52.426;9.424;2023-02-27T08:01:30;102468.00;;;-1.78;93.56
8653;BME280;4364;52.426;9.424;2023-02-27T08:03:56;102456.03;;;-1.74;94.00
8653;BME280;4364;52.426;9.424;2023-02-27T08:06:23;102467.78;;;-1.67;93.96
8653;BME280;4364;52.426;9.424;2023-02-27T08:08:51;102467.00;;;-1.59;94.22
8653;BME280;4364;52.426;9.424;2023-02-27T08:11:17;102459.53;;;-1.38;93.03
8653;BME280;4364;52.426;9.424;2023-02-27T08:13:44;102462.66;;;-1.42;92.46
8653;BME280;4364;52.426;9.424;2023-02-27T08:16:28;102467.06;;;-1.33;91.88
8653;BME280;4364;52.426;9.424;2023-02-27T08:18:57;102455.88;;;-1.37;92.53
8653;BME280;4364;52.426;9.424;2023-02-27T08:21:24;102460.03;;;-1.16;92.36
8653;BME280;4364;52.426;9.424;2023-02-27T08:23:50;102456.69;;;-1.18;91.44
8653;BME280;4364;52.426;9.424;2023-02-27T08:26:17;102456.84;;;-1.20;91.52
8653;BME280;4364;52.426;9.424;2023-02-27T08:28:44;102450.53;;;-1.10;90.93
8653;BME280;4364;52.426;9.424;2023-02-27T08:31:11;102451.13;;;-0.99;90.93
8653;BME280;4364;52.426;9.424;2023-02-27T08:33:38;102445.97;;;-1.00;89.89
8653;BME280;4364;52.426;9.424;2023-02-27T08:36:05;102439.56;;;-1.07;90.70
8653;BME280;4364;52.426;9.424;2023-02-27T08:38:33;102457.63;;;-1.01;90.31
8653;BME280;4364;52.426;9.424;2023-02-27T08:40:59;102450.59;;;-1.02;91.26
8653;BME280;4364;52.426;9.424;2023-02-27T08:43:26;102454.13;;;-1.02;91.16
8653;BME280;4364;52.426;9.424;2023-02-27T08:45:52;102463.84;;;-0.93;90.67
8653;BME280;4364;52.426;9.424;2023-02-27T08:48:19;102459.19;;;-0.90;91.22
8653;BME280;4364;52.426;9.424;2023-02-27T08:50:46;102458.03;;;-0.88;90.97
8653;BME280;4364;52.426;9.424;2023-02-27T08:53:13;102469.44;;;-0.78;90.41
8653;BME280;4364;52.426;9.424;2023-02-27T08:55:39;102468.16;;;-0.73;90.29
8653;BME280;4364;52.426;9.424;2023-02-27T08:58:06;102467.28;;;-0.74;89.93
8653;BME280;4364;52.426;9.424;2023-02-27T09:00:32;102466.03;;;-0.62;89.58
8653;BME280;4364;52.426;9.424;2023-02-27T09:02:59;102466.28;;;-0.47;88.36
8653;BME280;4364;52.426;9.424;2023-02-27T09:05:27;102471.03;;;-0.59;88.80
8653;BME280;4364;52.426;9.424;2023-02-27T09:07:54;102473.91;;;-0.52;89.01
8653;BME280;4364;52.426;9.424;2023-02-27T09:10:20;102481.63;;;-0.49;89.16
8653;BME280;4364;52.426;9.424;2023-02-27T09:12:47;102486.91;;;-0.23;87.88
8653;BME280;4364;52.426;9.424;2023-02-27T09:15:14;102490.06;;;-0.27;88.40
8653;BME280;4364;52.426;9.424;2023-02-27T09:17:41;102486.56;;;-0.28;89.44
8653;BME280;4364;52.426;9.424;2023-02-27T09:20:08;102479.75;;;-0.14;89.21
8653;BME280;4364;52.426;9.424;2023-02-27T09:22:35;102486.97;;;-0.06;88.66
8653;BME280;4364;52.426;9.424;2023-02-27T09:25:01;102487.13;;;-0.08;88.59
8653;BME280;4364;52.426;9.424;2023-02-27T09:27:28;102477.28;;;0.01;88.73
8653;BME280;4364;52.426;9.424;2023-02-27T09:29:54;102481.38;;;0.30;86.87
8653;BME280;4364;52.426;9.424;2023-02-27T09:32:22;102483.03;;;0.23;86.87
8653;BME280;4364;52.426;9.424;2023-02-27T09:34:49;102476.84;;;0.14;87.14
8653;BME280;4364;52.426;9.424;2023-02-27T09:37:16;102472.19;;;0.32;87.26
8653;BME280;4364;52.426;9.424;2023-02-27T09:39:43;102481.19;;;0.23;87.79
8653;BME280;4364;52.426;9.424;2023-02-27T09:42:20;102479.00;;;0.27;88.43
8653;BME280;4364;52.426;9.424;2023-02-27T09:45:00;102483.88;;;0.31;88.40
8653;BME280;4364;52.426;9.424;2023-02-27T09:47:36;102482.91;;;0.49;87.52
8653;BME280;4364;52.426;9.424;2023-02-27T09:50:23;102473.53;;;0.45;88.03
8653;BME280;4364;52.426;9.424;2023-02-27T09:52:52;102476.03;;;0.54;88.26
8653;BME280;4364;52.426;9.424;2023-02-27T09:55:20;102479.38;;;0.65;87.91
8653;BME280;4364;52.426;9.424;2023-02-27T10:01:12;102475.19;;;0.95;87.02
8653;BME280;4364;52.426;9.424;2023-02-27T10:03:51;102480.69;;;1.10;85.20
8653;BME280;4364;52.426;9.424;2023-02-27T10:06:24;102479.03;;;1.17;85.03
8653;BME280;4364;52.426;9.424;2023-02-27T10:11:58;102480.78;;;1.41;83.68
8653;BME280;4364;52.426;9.424;2023-02-27T10:15:04;102482.94;;;1.54;83.23
8653;BME280;4364;52.426;9.424;2023-02-27T10:17:41;102493.50;;;1.56;82.35
8653;BME280;4364;52.426;9.424;2023-02-27T10:20:19;102491.44;;;1.66;82.15
8653;BME280;4364;52.426;9.424;2023-02-27T10:22:49;102492.41;;;1.73;82.11
8653;BME280;4364;52.426;9.424;2023-02-27T10:25:18;102486.22;;;2.04;79.89
8653;BME280;4364;52.426;9.424;2023-02-27T10:28:08;102494.25;;;2.12;79.26
8653;BME280;4364;52.426;9.424;2023-02-27T10:30:36;102491.44;;;2.06;80.04
8653;BME280;4364;52.426;9.424;2023-02-27T10:33:07;102504.16;;;2.03;78.93
8653;BME280;4364;52.426;9.424;2023-02-27T10:35:39;102497.22;;;1.86;79.64
8653;BME280;4364;52.426;9.424;2023-02-27T10:38:14;102497.41;;;1.84;80.47
8653;BME280;4364;52.426;9.424;2023-02-27T10:40:44;102494.31;;;1.96;79.55
8653;BME280;4364;52.426;9.424;2023-02-27T10:43:16;102496.69;;;1.91;79.56
8653;BME280;4364;52.426;9.424;2023-02-27T10:45:44;102499.78;;;1.71;80.14
8653;BME280;4364;52.426;9.424;2023-02-27T10:48:11;102494.88;;;1.83;80.34
8653;BME280;4364;52.426;9.424;2023-02-27T10:50:43;102492.72;;;1.78;80.49
8653;BME280;4364;52.426;9.424;2023-02-27T10:53:20;102483.25;;;1.99;80.10
8653;BME280;4364;52.426;9.424;2023-02-27T10:56:11;102486.06;;;2.06;78.19
8653;BME280;4364;52.426;9.424;2023-02-27T10:58:38;102485.16;;;2.13;77.36
8653;BME280;4364;52.426;9.424;2023-02-27T11:01:07;102493.50;;;2.18;77.87
8653;BME280;4364;52.426;9.424;2023-02-27T11:03:37;102490.41;;;2.07;77.65
8653;BME280;4364;52.426;9.424;2023-02-27T11:06:34;102488.97;;;1.96;78.56
8653;BME280;4364;52.426;9.424;2023-02-27T11:11:51;102494.03;;;2.14;76.81
8653;BME280;4364;52.426;9.424;2023-02-27T11:14:29;102484.63;;;2.18;77.40
8653;BME280;4364;52.426;9.424;2023-02-27T11:17:01;102477.84;;;2.53;76.48
8653;BME280;4364;52.426;9.424;2023-02-27T11:22:14;102481.81;;;2.81;74.53
8653;BME280;4364;52.426;9.424;2023-02-27T11:24:42;102472.19;;;2.86;74.88
8653;BME280;4364;52.426;9.424;2023-02-27T11:27:21;102468.59;;;3.09;73.79
8653;BME280;4364;52.426;9.424;2023-02-27T11:29:55;102464.38;;;3.29;73.22
8653;BME280;4364;52.426;9.424;2023-02-27T11:32:25;102469.09;;;3.57;71.38
8653;BME280;4364;52.426;9.424;2023-02-27T11:34:56;102473.44;;;3.73;70.76
8653;BME280;4364;52.426;9.424;2023-02-27T11:37:33;102459.03;;;3.81;71.02
8653;BME280;4364;52.426;9.424;2023-02-27T11:42:47;102466.25;;;3.95;67.24
8653;BME280;4364;52.426;9.424;2023-02-27T11:48:10;102457.81;;;3.98;68.04
8653;BME280;4364;52.426;9.424;2023-02-27T11:54:13;102458.22;;;4.38;66.30
8653;BME280;4364;52.426;9.424;2023-02-27T11:57:01;102468.41;;;4.43;65.06
8653;BME280;4364;52.426;9.424;2023-02-27T12:04:52;102461.72;;;3.81;63.98
8653;BME280;4364;52.426;9.424;2023-02-27T12:07:24;102464.53;;;3.73;64.38
8653;BME280;4364;52.426;9.424;2023-02-27T12:10:10;102465.66;;;3.63;63.38
8653;BME280;4364;52.426;9.424;2023-02-27T12:20:54;102463.72;;;4.08;61.48
8653;BME280;4364;52.426;9.424;2023-02-27T12:23:30;102461.53;;;4.19;61.00
8653;BME280;4364;52.426;9.424;2023-02-27T12:26:29;102453.59;;;4.32;60.56
8653;BME280;4364;52.426;9.424;2023-02-27T12:29:08;102461.28;;;4.35;59.58
8653;BME280;4364;52.426;9.424;2023-02-27T12:31:45;102451.81;;;4.39;58.87
8653;BME280;4364;52.426;9.424;2023-02-27T12:34:27;102446.94;;;4.50;59.17
8653;BME280;4364;52.426;9.424;2023-02-27T12:37:04;102444.94;;;4.58;59.25
8653;BME280;4364;52.426;9.424;2023-02-27T12:39:36;102443.31;;;4.64;59.03
8653;BME280;4364;52.426;9.424;2023-02-27T12:44:48;102444.38;;;4.91;57.73
8653;BME280;4364;52.426;9.424;2023-02-27T12:50:16;102440.97;;;5.11;58.38
8653;BME280;4364;52.426;9.424;2023-02-27T12:53:00;102449.47;;;5.14;58.93
8653;BME280;4364;52.426;9.424;2023-02-27T12:55:32;102451.34;;;5.14;57.55
8653;BME280;4364;52.426;9.424;2023-02-27T12:58:23;102454.06;;;4.86;57.59
8653;BME280;4364;52.426;9.424;2023-02-27T13:00:59;102448.53;;;4.94;58.97
8653;BME280;4364;52.426;9.424;2023-02-27T13:06:14;102445.13;;;4.57;58.36
8653;BME280;4364;52.426;9.424;2023-02-27T13:11:50;102456.34;;;4.39;58.44
8653;BME280;4364;52.426;9.424;2023-02-27T13:22:51;102439.31;;;4.81;56.95
8653;BME280;4364;52.426;9.424;2023-02-27T13:25:19;102436.97;;;5.00;56.32
8653;BME280;4364;52.426;9.424;2023-02-27T13:28:00;102437.81;;;5.07;55.95
8653;BME280;4364;52.426;9.424;2023-02-27T13:35:52;102421.84;;;5.41;54.01
8653;BME280;4364;52.426;9.424;2023-02-27T13:38:43;102422.34;;;5.64;51.13
8653;BME280;4364;52.426;9.424;2023-02-27T13:43:55;102421.34;;;5.72;52.50
8653;BME280;4364;52.426;9.424;2023-02-27T13:46:27;102427.38;;;5.74;52.09
8653;BME280;4364;52.426;9.424;2023-02-27T13:51:54;102427.06;;;6.04;53.16
8653;BME280;4364;52.426;9.424;2023-02-27T13:54:32;102426.78;;;5.85;54.73
8653;BME280;4364;52.426;9.424;2023-02-27T13:57:13;102432.13;;;5.65;55.45
8653;BME280;4364;52.426;9.424;2023-02-27T13:59:50;102426.41;;;5.40;55.53
8653;BME280;4364;52.426;9.424;2023-02-27T14:05:33;102441.06;;;4.96;57.98
8653;BME280;4364;52.426;9.424;2023-02-27T14:08:08;102429.66;;;4.94;58.03
8653;BME280;4364;52.426;9.424;2023-02-27T14:10:54;102439.31;;;4.81;58.12
8653;BME280;4364;52.426;9.424;2023-02-27T14:19:00;102433.03;;;5.03;56.66
8653;BME280;4364;52.426;9.424;2023-02-27T14:24:17;102435.53;;;4.76;56.68
8653;BME280;4364;52.426;9.424;2023-02-27T14:26:45;102439.84;;;4.70;56.80
8653;BME280;4364;52.426;9.424;2023-02-27T14:29:27;102443.84;;;4.53;57.55
8653;BME280;4364;52.426;9.424;2023-02-27T14:31:59;102433.97;;;4.60;57.28
8653;BME280;4364;52.426;9.424;2023-02-27T14:34:27;102445.00;;;4.65;57.10
8653;BME280;4364;52.426;9.424;2023-02-27T14:36:56;102435.41;;;4.62;57.18
8653;BME280;4364;52.426;9.424;2023-02-27T14:39:31;102449.38;;;4.66;56.63
8653;BME280;4364;52.426;9.424;2023-02-27T14:44:50;102447.59;;;4.80;57.40
8653;BME280;4364;52.426;9.424;2023-02-27T14:47:19;102440.66;;;4.71;56.73
8653;BME280;4364;52.426;9.424;2023-02-27T14:49:49;102445.22;;;4.70;57.09
8653;BME280;4364;52.426;9.424;2023-02-27T14:52:28;102434.66;;;4.69;57.57
8653;BME280;4364;52.426;9.424;2023-02-27T14:55:19;102439.91;;;4.77;57.51
8653;BME280;4364;52.426;9.424;2023-02-27T15:00:35;102441.22;;;4.88;56.84
8653;BME280;4364;52.426;9.424;2023-02-27T15:03:15;102431.66;;;4.85;55.72
8653;BME280;4364;52.426;9.424;2023-02-27T15:05:43;102440.09;;;4.75;56.27
8653;BME280;4364;52.426;9.424;2023-02-27T15:08:14;102439.06;;;4.76;56.74
8653;BME280;4364;52.426;9.424;2023-02-27T15:10:42;102433.50;;;4.78;57.22
8653;BME280;4364;52.426;9.424;2023-02-27T15:13:21;102443.59;;;4.76;57.35
8653;BME280;4364;52.426;9.424;2023-02-27T15:15:48;102445.72;;;4.80;56.96
8653;BME280;4364;52.426;9.424;2023-02-27T15:18:21;102442.34;;;4.72;56.22
8653;BME280;4364;52.426;9.424;2023-02-27T15:20:56;102438.06;;;4.56;56.86
8653;BME280;4364;52.426;9.424;2023-02-27T15:23:27;102443.44;;;4.56;56.83
8653;BME280;4364;52.426;9.424;2023-02-27T15:25:57;102456.22;;;4.47;57.23
8653;BME280;4364;52.426;9.424;2023-02-27T15:28:35;102445.00;;;4.43;58.27
8653;BME280;4364;52.426;9.424;2023-02-27T15:31:02;102452.19;;;4.36;58.86
8653;BME280;4364;52.426;9.424;2023-02-27T15:33:31;102451.66;;;4.48;58.57
8653;BME280;4364;52.426;9.424;2023-02-27T15:35:59;102451.53;;;4.56;58.22
8653;BME280;4364;52.426;9.424;2023-02-27T15:38:32;102457.69;;;4.71;58.26